Fallston, Maryland
Current Conditions -  °F | °C
As of 5:45 PM on Monday 20 Oct 2014 (Local Time) from KMTN Reporting Station
Scattered Clouds Scattered Clouds  
Wind Chill: 63°   Ceiling: Unl
Heat Index: 63°   Visibility: 10mi
Dew Point: 52°   Wind: 13mph
Humidity: 68%   Direction: 150°SSE
Pressure: 29.97"   Gusts: NA
Location:  39.52°N, 76.41°W
Report Text: KMTN 202145Z 15011KT 10SM SCT070 17/11 A2997
Loading
Personal Weather Stations






























Interactive Weather Map New forecast layout! Learn more

10-Day Weather Forecast

Advertisements
Track Severe Weather on mobile